Time;durP1;ratioP1;P1;durP2;ratioP2;P2;SDS_P1;SDS_P2;PMS_P1;PMS_P2;Temp;Humidity;BMP_temperature;BMP_pressure;BME280_temperature;BME280_humidity;BME280_pressure;Samples;Min_cycle;Max_cycle;Signal;HPM_P1;HPM_P2
2023/01/04 00:01:42;;;;;;;6.57;3.83;;;;;;;9.02;100.00;101691.38;2615451;36;20038;-59
2023/01/04 00:04:11;;;;;;;8.05;3.13;;;;;;;9.09;100.00;101673.88;2614645;36;20040;-59
2023/01/04 00:06:40;;;;;;;10.70;3.10;;;;;;;9.16;100.00;101678.81;2615606;36;20023;-59
2023/01/04 00:09:08;;;;;;;7.75;2.83;;;;;;;9.08;100.00;101677.53;2616010;36;20041;-58
2023/01/04 00:11:42;;;;;;;8.48;3.05;;;;;;;9.09;100.00;101673.00;2615820;36;20033;-60
2023/01/04 00:14:12;;;;;;;10.27;4.05;;;;;;;9.08;100.00;101671.28;2615547;36;20845;-59
2023/01/04 00:16:40;;;;;;;7.35;2.78;;;;;;;9.09;100.00;101655.06;2614323;31;20038;-60
2023/01/04 00:19:09;;;;;;;8.23;3.50;;;;;;;8.95;100.00;101652.47;2614720;36;20034;-59
2023/01/04 00:21:37;;;;;;;6.70;3.25;;;;;;;9.07;100.00;101657.00;2616329;36;20435;-60
2023/01/04 00:24:06;;;;;;;8.02;3.28;;;;;;;9.00;100.00;101649.50;2616230;36;20432;-60
2023/01/04 00:26:37;;;;;;;5.47;3.35;;;;;;;9.04;100.00;101651.84;2614852;36;20035;-59
2023/01/04 00:29:09;;;;;;;9.57;3.92;;;;;;;8.94;100.00;101640.03;2612504;36;20065;-58
2023/01/04 00:31:37;;;;;;;8.43;3.45;;;;;;;9.03;100.00;101644.75;2607728;36;20663;-58
2023/01/04 00:34:07;;;;;;;6.88;3.38;;;;;;;9.06;100.00;101633.81;2614303;36;20039;-59
2023/01/04 00:36:35;;;;;;;12.32;3.35;;;;;;;9.14;100.00;101624.34;2614967;36;20035;-58
2023/01/04 00:39:13;;;;;;;5.13;3.35;;;;;;;9.08;100.00;101610.41;2615008;31;20023;-57
2023/01/04 00:41:42;;;;;;;8.32;3.13;;;;;;;9.12;100.00;101600.28;2615949;36;20029;-59
2023/01/04 00:44:15;;;;;;;7.82;3.53;;;;;;;9.07;100.00;101592.56;2615181;36;20574;-59
2023/01/04 00:46:44;;;;;;;11.23;3.42;;;;;;;9.03;100.00;101588.38;2615479;36;20685;-58
2023/01/04 00:49:13;;;;;;;;;;;;;;;8.99;100.00;101589.53;2615883;36;20034;-59
2023/01/04 00:51:43;;;;;;;7.55;3.33;;;;;;;9.03;100.00;101571.41;2616384;36;20347;-59
2023/01/04 00:54:15;;;;;;;9.13;3.80;;;;;;;9.09;100.00;101577.19;2615796;31;20541;-58
2023/01/04 00:56:44;;;;;;;7.57;3.33;;;;;;;9.08;100.00;101567.44;2616067;36;20030;-58
2023/01/04 00:59:17;;;;;;;9.55;3.17;;;;;;;9.14;100.00;101555.38;2615438;36;20563;-59
2023/01/04 01:01:47;;;;;;;7.30;4.20;;;;;;;9.09;100.00;101552.16;2614739;36;20081;-58
2023/01/04 01:04:17;;;;;;;6.32;3.30;;;;;;;9.17;100.00;101556.97;2614294;36;20654;-59
2023/01/04 01:06:45;;;;;;;6.85;2.95;;;;;;;9.14;100.00;101538.41;2615523;36;20034;-58
2023/01/04 01:09:14;;;;;;;4.18;2.78;;;;;;;9.19;100.00;101541.63;2614544;36;20053;-59
2023/01/04 01:11:43;;;;;;;7.85;3.42;;;;;;;9.22;100.00;101530.66;2613860;36;20049;-59
2023/01/04 01:14:19;;;;;;;12.43;3.55;;;;;;;9.23;100.00;101524.31;2614842;36;20038;-59
2023/01/04 01:16:48;;;;;;;5.65;3.65;;;;;;;9.28;100.00;101501.53;2614724;36;20035;-59
2023/01/04 01:19:17;;;;;;;9.88;3.08;;;;;;;9.24;100.00;101507.22;2615029;36;20042;-58
2023/01/04 01:21:45;;;;;;;5.85;3.25;;;;;;;9.28;100.00;101503.34;2615893;36;20602;-60
2023/01/04 01:24:18;;;;;;;5.63;3.20;;;;;;;9.21;100.00;101502.09;2615452;36;20038;-60
2023/01/04 01:26:47;;;;;;;5.97;3.17;;;;;;;9.21;100.00;101497.56;2615517;36;20031;-59
2023/01/04 01:29:15;;;;;;;4.88;2.78;;;;;;;9.27;100.00;101504.31;2614597;36;20041;-60
2023/01/04 01:31:46;;;;;;;4.85;2.70;;;;;;;9.32;100.00;101502.16;2613794;36;20417;-60
2023/01/04 01:34:15;;;;;;;5.18;2.67;;;;;;;9.39;100.00;101478.38;2614076;36;20035;-59
2023/01/04 01:36:44;;;;;;;6.30;2.97;;;;;;;9.29;100.00;101484.44;2615373;31;20054;-59
2023/01/04 01:39:13;;;;;;;4.07;2.92;;;;;;;9.32;100.00;101482.47;2615117;36;20039;-58
2023/01/04 01:41:41;;;;;;;3.47;2.80;;;;;;;9.31;100.00;101481.63;2615098;36;20031;-59
2023/01/04 01:44:39;;;;;;;8.15;2.67;;;;;;;9.35;100.00;101510.00;2613563;36;20034;-60
2023/01/04 01:47:15;;;;;;;3.60;2.40;;;;;;;9.41;100.00;101488.06;2614083;31;20585;-59
2023/01/04 01:49:47;;;;;;;4.43;2.65;;;;;;;9.53;100.00;101477.38;2613777;36;20034;-59
2023/01/04 01:52:19;;;;;;;5.32;2.50;;;;;;;9.43;100.00;101471.81;2614758;36;20063;-59
2023/01/04 01:54:51;;;;;;;2.90;2.40;;;;;;;9.59;100.00;101471.53;2614928;36;20846;-58
2023/01/04 01:57:23;;;;;;;4.97;2.70;;;;;;;9.56;100.00;101464.56;2615764;36;20041;-59
2023/01/04 01:59:58;;;;;;;3.33;2.47;;;;;;;9.75;100.00;101472.09;2614395;36;20039;-57
2023/01/04 02:02:29;;;;;;;5.13;2.75;;;;;;;9.71;100.00;101477.81;2614715;31;20030;-59
2023/01/04 02:05:00;;;;;;;5.30;3.10;;;;;;;9.88;100.00;101480.09;2615887;36;20412;-59
2023/01/04 02:07:30;;;;;;;4.25;2.83;;;;;;;9.84;100.00;101488.53;2615502;36;20042;-60
2023/01/04 02:09:59;;;;;;;5.63;3.10;;;;;;;9.93;100.00;101482.44;2615151;36;20038;-58
2023/01/04 02:12:28;;;;;;;4.65;3.30;;;;;;;9.84;100.00;101475.06;2614860;36;20041;-58
2023/01/04 02:14:56;;;;;;;4.83;3.80;;;;;;;9.88;100.00;101461.28;2615465;36;20042;-59
2023/01/04 02:17:55;;;;;;;6.07;3.67;;;;;;;9.96;100.00;101460.69;2615503;36;20663;-58
2023/01/04 02:20:32;;;;;;;4.63;3.97;;;;;;;10.05;100.00;101465.34;2613765;31;20038;-58
2023/01/04 02:23:31;;;;;;;7.18;4.28;;;;;;;9.87;100.00;101447.94;2613840;36;20031;-60
2023/01/04 02:26:49;;;;;;;5.40;3.60;;;;;;;10.06;100.00;101439.34;2614795;31;20035;-59
2023/01/04 02:30:05;;;;;;;6.30;4.23;;;;;;;10.02;100.00;101427.94;2615815;36;20407;-58
2023/01/04 02:32:47;;;;;;;8.55;4.20;;;;;;;10.16;100.00;101454.63;2615813;36;20423;-59
2023/01/04 02:35:23;;;;;;;8.35;4.50;;;;;;;10.14;100.00;101451.22;2614731;32;20035;-60
2023/01/04 02:37:59;;;;;;;5.22;4.22;;;;;;;10.09;100.00;101442.63;2615382;36;20048;-62
2023/01/04 02:40:36;;;;;;;5.50;4.00;;;;;;;10.28;100.00;101454.66;2615456;31;20053;-60
2023/01/04 02:46:01;;;;;;;7.00;5.20;;;;;;;10.20;100.00;101419.41;2615340;36;20141;-59
2023/01/04 02:51:30;;;;;;;6.95;4.70;;;;;;;10.48;100.00;101419.00;2615381;36;20039;-60
2023/01/04 02:54:01;;;;;;;6.30;5.13;;;;;;;10.34;100.00;101417.38;2616121;36;20514;-61
2023/01/04 02:56:42;;;;;;;7.10;5.15;;;;;;;10.47;100.00;101406.50;2615830;31;20444;-60
2023/01/04 02:59:25;;;;;;;6.53;5.32;;;;;;;10.45;100.00;101402.22;2615108;36;20041;-60
2023/01/04 03:07:43;;;;;;;7.85;5.70;;;;;;;10.52;100.00;101415.06;2614718;36;20035;-59
2023/01/04 03:10:18;;;;;;;8.57;5.82;;;;;;;10.54;100.00;101406.03;2615318;31;20030;-59
2023/01/04 03:12:51;;;;;;;9.25;6.68;;;;;;;10.52;100.00;101407.00;2615305;36;20455;-59
2023/01/04 03:15:24;;;;;;;10.70;5.95;;;;;;;10.57;100.00;101395.00;2614956;36;20034;-60
2023/01/04 03:17:56;;;;;;;9.85;6.47;;;;;;;10.55;100.00;101407.75;2614582;36;20038;-59
2023/01/04 03:20:30;;;;;;;12.50;7.13;;;;;;;10.65;100.00;101381.78;2615265;31;20151;-59
2023/01/04 03:36:56;;;;;;;9.10;7.07;;;;;;;10.83;100.00;101377.59;2616226;36;20588;-59
2023/01/04 03:50:49;;;;;;;10.75;7.50;;;;;;;10.83;100.00;101368.66;2615634;36;20604;-59
2023/01/04 03:53:22;;;;;;;10.52;9.02;;;;;;;10.83;100.00;101372.22;2615970;36;20034;-60
2023/01/04 03:55:52;;;;;;;11.73;8.82;;;;;;;10.98;100.00;101362.03;2615447;31;20034;-59
2023/01/04 03:58:22;;;;;;;12.05;8.55;;;;;;;10.98;100.00;101355.78;2615325;36;20030;-60
2023/01/04 04:00:50;;;;;;;12.82;8.45;;;;;;;10.98;100.00;101347.69;2615736;36;20543;-59
2023/01/04 04:03:18;;;;;;;11.43;8.73;;;;;;;11.09;100.00;101358.44;2615111;36;20034;-59
2023/01/04 04:08:31;;;;;;;12.52;8.68;;;;;;;11.03;100.00;101356.28;2614631;31;20544;-59
2023/01/04 04:11:29;;;;;;;14.13;9.43;;;;;;;11.08;100.00;101351.34;2615249;36;20034;-59
2023/01/04 04:13:52;;;;;;;13.52;9.15;;;;;;;11.25;100.00;101341.00;2615148;36;20034;-60
2023/01/04 04:16:20;;;;;;;13.57;8.75;;;;;;;11.30;100.00;101339.63;2615723;31;20030;-60
2023/01/04 04:18:49;;;;;;;11.70;7.85;;;;;;;11.34;100.00;101337.53;2614809;36;20633;-59
2023/01/04 04:21:18;;;;;;;11.90;9.00;;;;;;;11.21;100.00;101335.88;2615469;36;20411;-60
2023/01/04 04:23:49;;;;;;;10.27;7.63;;;;;;;11.26;100.00;101335.47;2615440;36;20089;-59
2023/01/04 04:26:18;;;;;;;10.60;7.35;;;;;;;11.37;100.00;101329.19;2615044;36;20038;-60
2023/01/04 04:28:46;;;;;;;10.85;7.22;;;;;;;11.38;100.00;101337.16;2614111;36;20026;-60
2023/01/04 04:31:15;;;;;;;9.07;6.90;;;;;;;11.35;100.00;101323.06;2615700;36;20531;-59
2023/01/04 04:33:43;;;;;;;8.50;6.68;;;;;;;11.36;100.00;101319.38;2615537;36;20455;-60
2023/01/04 04:36:13;;;;;;;10.73;6.47;;;;;;;11.47;100.00;101323.88;2614870;36;20069;-61
2023/01/04 04:38:41;;;;;;;8.05;5.47;;;;;;;11.47;100.00;101307.69;2615352;36;20668;-59
2023/01/04 04:43:56;;;;;;;7.75;4.85;;;;;;;11.50;100.00;101294.81;2614628;36;20041;-60
2023/01/04 04:46:24;;;;;;;7.75;4.80;;;;;;;11.61;100.00;101293.03;2614155;36;20042;-61
2023/01/04 04:48:53;;;;;;;6.40;5.03;;;;;;;11.54;100.00;101309.75;2614742;36;20030;-60
2023/01/04 04:51:21;;;;;;;7.25;5.75;;;;;;;11.54;100.00;101296.28;2615261;36;20034;-61
2023/01/04 04:53:50;;;;;;;7.20;4.80;;;;;;;11.64;100.00;101304.41;2615442;36;20023;-59
2023/01/04 04:56:21;;;;;;;7.95;4.93;;;;;;;11.61;100.00;101296.59;2615296;36;20030;-58
2023/01/04 04:58:50;;;;;;;6.55;4.75;;;;;;;11.61;100.00;101284.94;2614998;36;20034;-60
2023/01/04 05:01:19;;;;;;;6.65;5.22;;;;;;;11.76;100.00;101297.09;2615762;36;20384;-59
2023/01/04 05:03:47;;;;;;;9.37;5.07;;;;;;;11.78;100.00;101286.16;2615456;31;20673;-60
2023/01/04 05:06:16;;;;;;;5.88;4.78;;;;;;;11.82;100.00;101272.31;2614692;36;20035;-59
2023/01/04 05:08:44;;;;;;;6.57;4.38;;;;;;;11.74;100.00;101282.91;2614510;36;20042;-60
2023/01/04 05:11:14;;;;;;;7.60;5.13;;;;;;;11.79;100.00;101282.50;2614104;36;20551;-60
2023/01/04 05:13:42;;;;;;;5.43;4.13;;;;;;;11.83;100.00;101282.09;2614872;36;20419;-59
2023/01/04 05:16:11;;;;;;;7.97;4.72;;;;;;;11.78;100.00;101280.78;2614817;36;20054;-60
2023/01/04 05:18:40;;;;;;;6.57;4.65;;;;;;;11.80;100.00;101278.81;2614672;36;20038;-60
2023/01/04 05:21:08;;;;;;;6.53;4.33;;;;;;;11.69;100.00;101274.34;2615350;36;20527;-58
2023/01/04 05:23:36;;;;;;;4.90;3.72;;;;;;;11.65;100.00;101283.72;2614922;36;20057;-60
2023/01/04 05:26:05;;;;;;;7.50;4.20;;;;;;;11.75;100.00;101282.75;2612980;36;20057;-59
2023/01/04 05:28:33;;;;;;;6.27;3.47;;;;;;;11.65;100.00;101267.53;2613912;36;20675;-60
2023/01/04 05:31:01;;;;;;;6.05;4.28;;;;;;;11.75;100.00;101269.28;2614869;36;20038;-60
2023/01/04 05:33:33;;;;;;;5.30;3.88;;;;;;;11.71;100.00;101257.03;2614733;36;20038;-58
2023/01/04 05:36:05;;;;;;;5.45;3.40;;;;;;;11.75;100.00;101263.03;2615355;36;20029;-60
2023/01/04 05:38:33;;;;;;;5.50;4.30;;;;;;;11.65;100.00;101243.25;2614162;31;20567;-56
2023/01/04 05:41:02;;;;;;;7.53;3.95;;;;;;;11.72;100.00;101244.44;2614371;36;20037;-60
2023/01/04 05:43:28;;;;;;;6.78;4.15;;;;;;;11.70;100.00;101244.56;2615089;36;20046;-59
2023/01/04 05:45:58;;;;;;;6.18;3.83;;;;;;;11.80;100.00;101228.44;2614364;36;20046;-59
2023/01/04 05:48:29;;;;;;;6.70;4.78;;;;;;;11.71;100.00;101240.03;2614323;36;20038;-59
2023/01/04 05:50:58;;;;;;;5.90;4.40;;;;;;;11.77;100.00;101234.09;2613779;31;20034;-59
2023/01/04 05:53:26;;;;;;;6.18;4.18;;;;;;;11.62;100.00;101221.97;2615064;36;20022;-58
2023/01/04 05:55:54;;;;;;;5.57;4.20;;;;;;;11.74;100.00;101223.56;2615338;36;20514;-57
2023/01/04 05:58:23;;;;;;;9.57;5.05;;;;;;;11.72;100.00;101209.38;2615107;31;20608;-58
2023/01/04 06:00:51;;;;;;;6.53;4.93;;;;;;;11.66;100.00;101207.19;2614340;36;20032;-57
2023/01/04 06:03:19;;;;;;;6.20;4.77;;;;;;;11.66;100.00;101201.81;2615980;31;20035;-59
2023/01/04 06:05:53;;;;;;;6.10;4.00;;;;;;;11.62;100.00;101212.03;2616449;36;20023;-59
2023/01/04 06:08:21;;;;;;;6.78;4.30;;;;;;;11.79;100.00;101221.31;2615035;36;20034;-55
2023/01/04 06:10:54;;;;;;;5.80;4.07;;;;;;;11.76;100.00;101218.88;2614777;31;20033;-58
2023/01/04 06:13:22;;;;;;;5.88;4.28;;;;;;;11.79;100.00;101182.72;2615132;36;20149;-59
2023/01/04 06:15:51;;;;;;;6.47;3.92;;;;;;;11.79;100.00;101198.91;2615791;36;20031;-56
2023/01/04 06:18:19;;;;;;;5.90;3.47;;;;;;;11.86;100.00;101216.25;2614916;31;20046;-59
2023/01/04 06:20:47;;;;;;;5.03;3.83;;;;;;;11.79;100.00;101221.31;2615488;36;20027;-58
2023/01/04 06:23:18;;;;;;;5.50;3.83;;;;;;;11.79;100.00;101244.75;2616142;31;20034;-58
2023/01/04 06:25:47;;;;;;;5.18;3.70;;;;;;;11.86;100.00;101235.97;2614745;36;20038;-57
2023/01/04 06:28:15;;;;;;;5.60;3.70;;;;;;;11.92;100.00;101242.66;2614655;31;20023;-59
2023/01/04 06:30:43;;;;;;;4.95;3.90;;;;;;;11.75;100.00;101225.28;2614414;31;20042;-56
2023/01/04 06:33:12;;;;;;;4.13;3.00;;;;;;;11.86;100.00;101209.00;2614868;36;20053;-58
2023/01/04 06:35:40;;;;;;;8.38;3.53;;;;;;;11.88;100.00;101215.13;2615944;36;20031;-58
2023/01/04 06:38:08;;;;;;;4.53;3.63;;;;;;;11.74;100.00;101237.91;2616464;36;20538;-59
2023/01/04 06:40:39;;;;;;;4.30;3.38;;;;;;;11.71;100.00;101235.47;2616111;31;20035;-59
2023/01/04 06:43:07;;;;;;;5.28;3.20;;;;;;;11.83;100.00;101230.84;2614974;36;20134;-57
2023/01/04 06:45:36;;;;;;;6.88;3.67;;;;;;;11.90;100.00;101240.09;2616360;31;20030;-56
2023/01/04 06:48:04;;;;;;;6.32;3.53;;;;;;;11.89;100.00;101224.06;2616747;31;20465;-58
2023/01/04 06:50:33;;;;;;;8.43;4.90;;;;;;;11.86;100.00;101227.88;2616486;36;20037;-57
2023/01/04 06:53:01;;;;;;;5.27;3.90;;;;;;;11.91;100.00;101231.03;2616007;36;20295;-60
2023/01/04 06:55:30;;;;;;;6.53;4.77;;;;;;;11.87;100.00;101213.41;2616077;31;20035;-59
2023/01/04 06:58:01;;;;;;;7.70;4.90;;;;;;;11.98;100.00;101220.56;2615345;36;20113;-57
2023/01/04 07:00:29;;;;;;;7.95;4.78;;;;;;;12.03;100.00;101228.28;2615630;31;20041;-58
2023/01/04 07:02:57;;;;;;;9.38;4.63;;;;;;;12.04;100.00;101220.06;2615575;36;20041;-58
2023/01/04 07:05:26;;;;;;;7.38;5.53;;;;;;;12.04;100.00;101219.19;2615648;36;20042;-58
2023/01/04 07:07:54;;;;;;;12.73;6.18;;;;;;;12.00;100.00;101201.56;2616017;36;20442;-59
2023/01/04 07:10:22;;;;;;;6.70;4.65;;;;;;;12.09;100.00;101216.94;2615014;36;20038;-59
2023/01/04 07:12:51;;;;;;;9.07;4.80;;;;;;;12.11;100.00;101209.53;2615082;36;20042;-59
2023/01/04 07:15:22;;;;;;;8.80;5.13;;;;;;;11.99;100.00;101202.56;2615300;36;20031;-58
2023/01/04 07:17:51;;;;;;;7.45;5.13;;;;;;;12.03;100.00;101201.31;2615395;36;20038;-58
2023/01/04 07:20:19;;;;;;;6.82;4.88;;;;;;;11.92;100.00;101195.00;2615904;36;20442;-59
2023/01/04 07:22:48;;;;;;;9.35;5.05;;;;;;;12.03;100.00;101198.59;2615322;36;20041;-58
2023/01/04 07:25:16;;;;;;;6.63;4.17;;;;;;;11.93;100.00;101190.47;2615195;36;20026;-59
2023/01/04 07:27:44;;;;;;;9.75;5.10;;;;;;;11.98;100.00;101192.75;2615121;36;20046;-56
2023/01/04 07:30:14;;;;;;;6.28;4.20;;;;;;;11.96;100.00;101190.19;2614974;36;20399;-59
2023/01/04 07:32:45;;;;;;;9.32;5.18;;;;;;;12.11;100.00;101193.34;2616075;36;20030;-58
2023/01/04 07:35:13;;;;;;;8.82;4.95;;;;;;;12.13;100.00;101187.81;2615123;36;20034;-57
2023/01/04 07:37:45;;;;;;;7.17;4.70;;;;;;;12.06;100.00;101198.31;2616231;36;20035;-56
2023/01/04 07:40:14;;;;;;;9.57;4.90;;;;;;;12.21;100.00;101178.03;2615874;36;20847;-58
2023/01/04 07:42:42;;;;;;;6.85;4.72;;;;;;;12.06;100.00;101182.13;2614365;36;20039;-55
2023/01/04 07:45:12;;;;;;;8.40;5.32;;;;;;;12.08;100.00;101180.16;2615173;36;20042;-57
2023/01/04 07:47:40;;;;;;;;;;;;;;;12.16;100.00;101174.91;2614593;36;20038;-57
2023/01/04 07:50:11;;;;;;;9.55;5.57;;;;;;;12.01;100.00;101169.03;2615815;36;19946;-57
2023/01/04 07:52:40;;;;;;;7.55;6.22;;;;;;;12.06;100.00;101174.03;2615681;36;20038;-57
2023/01/04 07:55:09;;;;;;;10.75;5.57;;;;;;;12.06;100.00;101168.66;2613558;36;20038;-58
2023/01/04 07:57:38;;;;;;;7.95;5.90;;;;;;;11.99;100.00;101164.78;2615257;36;20034;-57
2023/01/04 08:00:07;;;;;;;13.60;6.00;;;;;;;12.04;100.00;101176.00;2614672;31;20045;-59
2023/01/04 08:02:37;;;;;;;9.70;5.95;;;;;;;12.13;100.00;101172.50;2614947;36;20030;-58
2023/01/04 08:05:06;;;;;;;7.75;5.13;;;;;;;12.13;100.00;101179.72;2615203;36;20034;-58
2023/01/04 08:07:37;;;;;;;9.95;5.65;;;;;;;12.04;100.00;101168.78;2615403;36;20030;-58
2023/01/04 08:10:06;;;;;;;7.50;5.55;;;;;;;12.11;100.00;101185.25;2614284;36;20045;-57
2023/01/04 08:12:34;;;;;;;11.98;5.05;;;;;;;12.18;100.00;101170.22;2613561;31;20037;-58
2023/01/04 08:15:03;;;;;;;7.97;5.17;;;;;;;12.21;100.00;101177.19;2615303;36;20042;-57
2023/01/04 08:17:31;;;;;;;8.73;4.72;;;;;;;12.06;100.00;101174.03;2615404;36;20034;-59
2023/01/04 08:20:00;;;;;;;8.57;5.00;;;;;;;12.05;100.00;101177.72;2615261;31;20030;-59
2023/01/04 08:22:28;;;;;;;6.22;4.68;;;;;;;11.97;100.00;101170.31;2613431;36;20031;-57
2023/01/04 08:24:59;;;;;;;4.70;3.47;;;;;;;12.04;100.00;101165.22;2613885;36;20054;-57
2023/01/04 08:27:28;;;;;;;5.07;3.95;;;;;;;12.17;100.00;101171.22;2614645;36;20045;-58
2023/01/04 08:29:56;;;;;;;7.72;4.15;;;;;;;12.05;100.00;101178.56;2611888;36;20035;-59
2023/01/04 08:32:24;;;;;;;5.50;3.75;;;;;;;12.05;100.00;101175.03;2614312;36;20022;-58
2023/01/04 08:34:53;;;;;;;8.53;4.00;;;;;;;12.11;100.00;101170.94;2615325;36;20594;-57
2023/01/04 08:37:21;;;;;;;5.23;3.70;;;;;;;12.16;100.00;101168.66;2615932;36;20030;-59
2023/01/04 08:39:50;;;;;;;5.32;3.88;;;;;;;12.17;100.00;101181.16;2616036;36;20428;-60
2023/01/04 08:42:21;;;;;;;4.93;3.53;;;;;;;12.11;100.00;101166.38;2614365;31;20034;-58
2023/01/04 08:44:49;;;;;;;5.80;3.45;;;;;;;12.17;100.00;101176.59;2614547;36;20070;-59
2023/01/04 08:47:18;;;;;;;7.20;3.57;;;;;;;12.09;100.00;101177.31;2615565;31;20412;-57
2023/01/04 08:49:46;;;;;;;5.18;2.88;;;;;;;12.12;100.00;101169.91;2613160;36;20031;-59
2023/01/04 08:52:14;;;;;;;4.90;3.30;;;;;;;12.18;100.00;101175.63;2615344;36;20022;-60
2023/01/04 08:54:43;;;;;;;5.67;2.83;;;;;;;12.17;100.00;101179.31;2615905;36;20031;-59
2023/01/04 08:57:11;;;;;;;4.50;3.10;;;;;;;12.09;100.00;101184.56;2615401;36;20550;-60
2023/01/04 08:59:42;;;;;;;4.90;3.40;;;;;;;12.13;100.00;101180.59;2615094;36;20031;-57
2023/01/04 09:02:22;;;;;;;3.38;2.65;;;;;;;12.22;100.00;101193.25;2615375;36;20563;-58
2023/01/04 09:04:50;;;;;;;3.60;3.10;;;;;;;12.29;100.00;101190.00;2616208;31;20532;-58
2023/01/04 09:07:19;;;;;;;8.13;2.80;;;;;;;12.17;100.00;101184.69;2616119;36;20466;-56
2023/01/04 09:09:47;;;;;;;3.63;2.60;;;;;;;12.15;100.00;101186.69;2614996;36;20041;-59
2023/01/04 09:12:15;;;;;;;4.47;2.38;;;;;;;12.31;100.00;101201.50;2615444;36;20038;-59
2023/01/04 09:14:46;;;;;;;3.20;2.43;;;;;;;12.43;100.00;101200.41;2616062;36;20056;-58
2023/01/04 09:17:15;;;;;;;3.20;2.03;;;;;;;12.34;100.00;101188.59;2615355;36;20038;-58
2023/01/04 09:19:43;;;;;;;3.20;2.10;;;;;;;12.36;100.00;101208.19;2615701;36;20661;-58
2023/01/04 09:22:11;;;;;;;2.90;2.13;;;;;;;12.36;100.00;101208.19;2615730;36;20041;-58
2023/01/04 09:24:40;;;;;;;3.03;2.17;;;;;;;12.26;100.00;101210.00;2615910;36;20041;-58
2023/01/04 09:27:08;;;;;;;3.63;1.95;;;;;;;12.24;100.00;101204.75;2615701;36;20041;-58
2023/01/04 09:29:36;;;;;;;2.97;1.77;;;;;;;12.32;100.00;101211.31;2614736;36;20045;-58
2023/01/04 09:32:07;;;;;;;1.95;1.30;;;;;;;12.34;100.00;101204.78;2615636;31;20102;-59
2023/01/04 09:34:36;;;;;;;2.50;1.30;;;;;;;12.43;100.00;101201.22;2615746;36;20038;-59
2023/01/04 09:37:04;;;;;;;2.13;1.35;;;;;;;12.35;100.00;101205.63;2615139;36;20037;-58
2023/01/04 09:39:32;;;;;;;2.03;1.52;;;;;;;12.48;100.00;101205.38;2615566;36;20034;-58
2023/01/04 09:42:02;;;;;;;3.33;1.53;;;;;;;12.47;100.00;101220.72;2615486;36;20037;-58
2023/01/04 09:44:38;;;;;;;2.63;1.50;;;;;;;12.41;100.00;101208.63;2615464;31;20030;-59
2023/01/04 09:47:12;;;;;;;2.10;1.60;;;;;;;12.44;100.00;101221.84;2614433;36;20034;-58
2023/01/04 09:49:45;;;;;;;2.33;1.50;;;;;;;12.41;100.00;101221.25;2613907;36;20031;-59
2023/01/04 09:52:19;;;;;;;3.78;1.48;;;;;;;12.47;100.00;101214.44;2613775;31;20031;-59
2023/01/04 09:54:52;;;;;;;4.85;1.42;;;;;;;12.46;100.00;101212.75;2614454;36;20565;-59
2023/01/04 09:57:27;;;;;;;3.13;1.38;;;;;;;12.56;100.00;101219.88;2614948;36;20031;-59
2023/01/04 09:59:59;;;;;;;2.63;1.63;;;;;;;12.44;100.00;101223.72;2613791;36;20030;-58
2023/01/04 10:02:40;;;;;;;3.92;1.33;;;;;;;12.54;100.00;101227.25;2615707;36;20551;-58
2023/01/04 10:05:17;;;;;;;2.58;1.73;;;;;;;12.58;100.00;101223.28;2613941;36;20034;-59
2023/01/04 10:07:45;;;;;;;2.40;1.60;;;;;;;12.61;100.00;101217.59;2613741;31;20069;-59
2023/01/04 10:10:17;;;;;;;3.42;1.90;;;;;;;12.70;100.00;101215.06;2613918;36;20030;-59
2023/01/04 10:12:58;;;;;;;3.90;1.92;;;;;;;12.74;100.00;101224.59;2615261;36;20041;-59
2023/01/04 10:15:37;;;;;;;3.63;1.83;;;;;;;12.83;100.00;101217.47;2616131;36;20570;-59
2023/01/04 10:18:22;;;;;;;3.45;2.38;;;;;;;12.87;100.00;101221.59;2614930;36;20031;-60
2023/01/04 10:21:28;;;;;;;6.05;1.88;;;;;;;12.83;100.00;101215.63;2616205;36;20029;-59
2023/01/04 10:24:07;;;;;;;3.28;2.10;;;;;;;12.89;100.00;101228.56;2615886;36;20038;-58
2023/01/04 10:26:42;;;;;;;3.20;1.92;;;;;;;12.85;100.00;101213.63;2615061;36;20031;-58
2023/01/04 10:29:28;;;;;;;4.47;2.17;;;;;;;12.87;100.00;101238.66;2616667;36;20419;-59
2023/01/04 10:32:04;;;;;;;4.93;2.15;;;;;;;12.87;100.00;101222.44;2615852;36;20030;-58
2023/01/04 10:34:42;;;;;;;6.55;2.60;;;;;;;12.81;100.00;101217.63;2615206;36;20037;-58
2023/01/04 10:37:19;;;;;;;6.18;2.25;;;;;;;12.91;100.00;101212.19;2615767;36;20034;-58
2023/01/04 10:39:53;;;;;;;4.38;2.72;;;;;;;12.82;100.00;101203.09;2615913;36;20022;-57
2023/01/04 10:42:32;;;;;;;6.50;2.50;;;;;;;12.89;100.00;101215.03;2615529;36;20170;-59
2023/01/04 10:45:12;;;;;;;5.97;2.83;;;;;;;12.95;100.00;101198.25;2615759;36;20034;-58
2023/01/04 10:47:50;;;;;;;7.82;2.33;;;;;;;13.03;100.00;101194.88;2615918;36;20034;-58
2023/01/04 10:50:26;;;;;;;5.90;2.53;;;;;;;13.00;100.00;101200.56;2616254;36;20042;-57
2023/01/04 10:53:01;;;;;;;11.88;2.60;;;;;;;12.96;100.00;101199.97;2616694;36;20555;-59
2023/01/04 10:55:38;;;;;;;4.32;2.53;;;;;;;12.97;100.00;101212.50;2615929;36;20030;-58
2023/01/04 10:58:13;;;;;;;6.07;2.35;;;;;;;12.96;100.00;101199.97;2616239;36;20027;-58
2023/01/04 11:00:46;;;;;;;6.03;2.85;;;;;;;13.05;100.00;101202.81;2616694;31;20023;-59
2023/01/04 11:03:23;;;;;;;8.10;3.58;;;;;;;13.00;100.00;101184.34;2616700;31;20061;-59
2023/01/04 11:06:01;;;;;;;6.35;2.95;;;;;;;13.08;100.00;101175.50;2616798;36;20030;-58
2023/01/04 11:08:35;;;;;;;6.28;2.30;;;;;;;13.13;100.00;101192.13;2616579;31;20502;-59
2023/01/04 11:11:10;;;;;;;6.00;2.72;;;;;;;13.04;100.00;101176.78;2615866;36;20039;-58
2023/01/04 11:13:39;;;;;;;4.05;2.10;;;;;;;13.11;100.00;101167.09;2616609;36;20038;-58
2023/01/04 11:16:09;;;;;;;5.50;2.10;;;;;;;13.07;100.00;101168.38;2616385;36;20633;-59
2023/01/04 11:18:41;;;;;;;6.75;2.40;;;;;;;13.01;100.00;101155.47;2615891;36;20556;-60
2023/01/04 11:21:15;;;;;;;4.53;2.50;;;;;;;12.94;100.00;101174.09;2616690;36;20035;-59
2023/01/04 11:23:44;;;;;;;8.32;2.67;;;;;;;12.93;100.00;101154.34;2616448;36;20572;-60
2023/01/04 11:26:17;;;;;;;5.63;2.35;;;;;;;12.92;100.00;101160.72;2615991;36;20423;-59
2023/01/04 11:28:53;;;;;;;4.10;2.75;;;;;;;13.00;100.00;101157.31;2616620;36;20035;-59
2023/01/04 11:31:29;;;;;;;6.13;3.00;;;;;;;12.93;100.00;101140.81;2616237;36;20034;-60
2023/01/04 11:33:59;;;;;;;4.47;2.88;;;;;;;13.09;100.00;101151.03;2616691;36;20434;-59
2023/01/04 11:36:39;;;;;;;6.82;3.05;;;;;;;12.92;100.00;101152.63;2614817;36;20030;-60
2023/01/04 11:39:09;;;;;;;4.30;2.97;;;;;;;12.92;100.00;101173.38;2614651;36;20035;-58
2023/01/04 11:41:37;;;;;;;6.47;3.28;;;;;;;12.86;100.00;101158.59;2615918;36;20027;-59
2023/01/04 11:44:08;;;;;;;7.63;3.53;;;;;;;12.88;100.00;101153.94;2615817;31;20022;-59
2023/01/04 11:46:36;;;;;;;6.53;3.17;;;;;;;12.95;100.00;101138.81;2615589;36;20041;-59
2023/01/04 11:49:05;;;;;;;6.70;2.90;;;;;;;13.04;100.00;101129.00;2614574;36;20045;-59
2023/01/04 11:51:41;;;;;;;5.57;3.47;;;;;;;12.99;100.00;101130.44;2616732;36;20643;-59
2023/01/04 11:54:20;;;;;;;8.07;3.67;;;;;;;12.95;100.00;101144.22;2616682;31;20508;-59
2023/01/04 11:57:01;;;;;;;6.13;2.90;;;;;;;12.92;100.00;101122.06;2615504;36;20571;-59
2023/01/04 11:59:30;;;;;;;5.75;2.85;;;;;;;13.04;100.00;101134.41;2615724;36;20062;-59
2023/01/04 12:02:21;;;;;;;12.02;3.20;;;;;;;13.03;100.00;101145.34;2616028;36;20103;-59
2023/01/04 12:04:50;;;;;;;10.85;3.05;;;;;;;12.88;100.00;101129.63;2615118;36;20033;-59
2023/01/04 12:07:28;;;;;;;;;;;;;;;12.91;100.00;101123.91;2616666;36;20034;-59
2023/01/04 12:09:56;;;;;;;7.82;2.50;;;;;;;13.00;100.00;101126.72;2614740;36;19954;-58
2023/01/04 12:12:30;;;;;;;10.93;2.67;;;;;;;13.09;100.00;101131.28;2615910;36;20041;-59
2023/01/04 12:15:05;;;;;;;8.43;2.75;;;;;;;13.13;100.00;101128.13;2616178;36;20680;-59
2023/01/04 12:17:44;;;;;;;31.80;16.48;;;;;;;13.13;100.00;101152.47;2616110;36;20058;-59
2023/01/04 12:20:17;;;;;;;5.85;3.05;;;;;;;13.12;100.00;101134.53;2615934;31;20440;-59
2023/01/04 12:22:48;;;;;;;7.65;2.85;;;;;;;13.03;100.00;101118.34;2615591;31;20046;-58